createdAt,value
2022-08-20T00:04:02.157Z,99401.00
2022-08-20T00:09:04.559Z,99391.63
2022-08-20T00:14:07.274Z,99393.44
2022-08-20T00:19:09.593Z,99381.97
2022-08-20T00:24:11.259Z,99392.28
2022-08-20T00:29:13.188Z,99392.09
2022-08-20T00:34:18.301Z,99394.50
2022-08-20T00:39:20.004Z,99399.81
2022-08-20T00:44:22.812Z,99385.91
2022-08-20T00:49:28.532Z,99390.13
2022-08-20T00:54:35.371Z,99397.41
2022-08-20T00:59:41.666Z,99399.78
2022-08-20T01:04:49.705Z,99404.41
2022-08-20T01:09:57.846Z,99386.66
2022-08-20T01:15:03.556Z,99396.38
2022-08-20T01:20:10.576Z,99394.06
2022-08-20T01:25:23.904Z,99402.13
2022-08-20T01:30:28.813Z,99405.75
2022-08-20T01:35:36.921Z,99399.72
2022-08-20T01:40:58.748Z,99403.78
2022-08-20T01:46:01.384Z,99412.88
2022-08-20T01:51:19.473Z,99409.41
2022-08-20T01:56:25.966Z,99410.63
2022-08-20T02:01:46.790Z,99414.88
2022-08-20T02:06:58.236Z,99410.00
2022-08-20T02:12:01.035Z,99413.94
2022-08-20T02:17:02.885Z,99420.00
2022-08-20T02:22:32.332Z,99414.63
2022-08-20T02:27:34.013Z,99414.41
2022-08-20T02:32:37.929Z,99408.97
2022-08-20T02:37:42.417Z,99405.41
2022-08-20T02:42:44.612Z,99408.59
2022-08-20T02:47:46.907Z,99402.59
2022-08-20T02:52:51.864Z,99398.06
2022-08-20T02:57:57.515Z,99403.75
2022-08-20T03:03:01.379Z,99389.44
2022-08-20T03:08:04.057Z,99382.44
2022-08-20T03:13:06.754Z,99379.00
2022-08-20T03:18:08.578Z,99382.56
2022-08-20T03:23:10.695Z,99387.75
2022-08-20T03:28:13.484Z,99395.13
2022-08-20T03:33:16.503Z,99393.78
2022-08-20T03:38:25.004Z,99393.22
2022-08-20T03:43:35.305Z,99392.00
2022-08-20T03:48:37.924Z,99398.75
2022-08-20T03:53:39.570Z,99399.81
2022-08-20T03:58:41.216Z,99408.03
2022-08-20T04:03:42.896Z,99405.41
2022-08-20T04:08:44.553Z,99409.09
2022-08-20T04:13:46.196Z,99405.66
2022-08-20T04:19:01.877Z,99405.50
2022-08-20T04:24:05.770Z,99404.19
2022-08-20T04:29:08.228Z,99409.09
2022-08-20T04:34:09.952Z,99406.59
2022-08-20T04:39:11.593Z,99409.91
2022-08-20T04:44:13.302Z,99418.22
2022-08-20T04:49:15.202Z,99418.09
2022-08-20T04:54:16.870Z,99421.50
2022-08-20T04:59:18.519Z,99430.50
2022-08-20T05:04:20.162Z,99438.78
2022-08-20T05:09:21.812Z,99437.88
2022-08-20T05:14:23.471Z,99446.06
2022-08-20T05:19:25.547Z,99438.88
2022-08-20T05:24:27.561Z,99440.38
2022-08-20T05:29:31.690Z,99436.47
2022-08-20T05:34:33.408Z,99436.50
2022-08-20T05:39:37.490Z,99443.47
2022-08-20T05:44:39.330Z,99432.34
2022-08-20T05:49:41.014Z,99441.38
2022-08-20T05:54:42.668Z,99443.47
2022-08-20T05:59:44.331Z,99448.44
2022-08-20T06:04:46.085Z,99450.00
2022-08-20T06:09:57.861Z,99461.50
2022-08-20T06:14:59.575Z,99472.56
2022-08-20T06:20:06.558Z,99485.72
2022-08-20T06:25:10.325Z,99481.38
2022-08-20T06:30:14.989Z,99485.91
2022-08-20T06:35:20.007Z,99491.34
2022-08-20T06:40:25.761Z,99497.16
2022-08-20T06:45:31.973Z,99506.41
2022-08-20T06:50:47.036Z,99502.13
2022-08-20T06:55:54.351Z,99505.03
2022-08-20T07:00:56.089Z,99502.88
2022-08-20T07:05:58.039Z,99502.75
2022-08-20T07:10:59.845Z,99515.31
2022-08-20T07:16:01.527Z,99508.41
2022-08-20T07:21:03.956Z,99512.13
2022-08-20T07:26:08.127Z,99518.28
2022-08-20T07:31:28.537Z,99522.72
2022-08-20T07:36:33.322Z,99531.94
2022-08-20T07:41:35.096Z,99524.25
2022-08-20T07:46:36.754Z,99532.16
2022-08-20T07:51:38.476Z,99540.25
2022-08-20T07:56:40.120Z,99553.34
2022-08-20T08:01:42.105Z,99542.75
2022-08-20T08:06:45.330Z,99555.56
2022-08-20T08:11:50.295Z,99559.84
2022-08-20T08:16:54.896Z,99566.59
2022-08-20T08:21:58.744Z,99561.25
2022-08-20T08:27:00.713Z,99569.97
2022-08-20T08:32:04.621Z,99582.03
2022-08-20T08:37:06.535Z,99577.19
2022-08-20T08:42:27.162Z,99574.34
2022-08-20T08:47:35.708Z,99580.16
2022-08-20T08:52:41.298Z,99582.50
2022-08-20T08:57:42.965Z,99581.38
2022-08-20T09:03:07.560Z,99586.28
2022-08-20T09:08:16.846Z,99589.56
2022-08-20T09:13:19.320Z,99585.28
2022-08-20T09:18:20.982Z,99589.44
2022-08-20T09:23:22.678Z,99586.91
2022-08-20T09:28:24.597Z,99583.91
2022-08-20T09:33:34.088Z,99582.63
2022-08-20T09:38:35.746Z,99579.81
2022-08-20T09:43:37.392Z,99583.88
2022-08-20T09:48:39.198Z,99580.03
2022-08-20T09:53:49.019Z,99584.59
2022-08-20T09:58:53.433Z,99593.41
2022-08-20T10:03:55.068Z,99589.38
2022-08-20T10:08:56.720Z,99589.47
2022-08-20T10:13:58.848Z,99599.44
2022-08-20T10:19:00.798Z,99601.38
2022-08-20T10:24:02.641Z,99598.38
2022-08-20T10:29:04.297Z,99600.63
2022-08-20T10:34:06.014Z,99605.38
2022-08-20T10:39:07.688Z,99601.56
2022-08-20T10:44:09.392Z,99601.56
2022-08-20T10:49:11.522Z,99611.31
2022-08-20T10:54:15.525Z,99606.56
2022-08-20T10:59:17.157Z,99604.31
2022-08-20T11:04:18.865Z,99611.53
2022-08-20T11:09:20.571Z,99610.72
2022-08-20T11:14:22.264Z,99610.31
2022-08-20T11:19:23.921Z,99611.16
2022-08-20T11:24:25.617Z,99617.16
2022-08-20T11:29:30.975Z,99627.69
2022-08-20T11:34:35.166Z,99624.50
2022-08-20T11:39:41.615Z,99634.09
2022-08-20T11:44:43.869Z,99643.00
2022-08-20T11:49:45.549Z,99645.41
2022-08-20T11:54:47.176Z,99635.88
2022-08-20T11:59:52.181Z,99652.56
2022-08-20T12:04:54.037Z,99658.06
2022-08-20T12:09:55.792Z,99655.50
2022-08-20T12:14:57.441Z,99657.19
2022-08-20T12:20:01.528Z,99664.31
2022-08-20T12:25:04.925Z,99663.69
2022-08-20T12:30:14.009Z,99669.88
2022-08-20T12:35:17.715Z,99665.66
2022-08-20T12:40:32.405Z,99660.97
2022-08-20T12:45:35.874Z,99665.66
2022-08-20T12:50:39.960Z,99670.69
2022-08-20T12:55:41.639Z,99663.25
2022-08-20T13:00:48.608Z,99673.81
2022-08-20T13:05:52.413Z,99666.19
2022-08-20T13:10:54.106Z,99660.88
2022-08-20T13:15:55.763Z,99664.34
2022-08-20T13:20:57.414Z,99660.97
2022-08-20T13:25:59.102Z,99664.22
2022-08-20T13:31:02.173Z,99669.38
2022-08-20T13:36:04.228Z,99669.16
2022-08-20T13:41:06.048Z,99671.91
2022-08-20T13:46:07.778Z,99668.50
2022-08-20T13:51:09.457Z,99680.78
2022-08-20T13:56:11.120Z,99668.59
2022-08-20T14:01:12.972Z,99666.44
2022-08-20T14:06:14.689Z,99667.28
2022-08-20T14:11:17.705Z,99663.00
2022-08-20T14:16:25.355Z,99663.59
2022-08-20T14:21:29.721Z,99672.16
2022-08-20T14:26:31.412Z,99662.78
2022-08-20T14:31:33.079Z,99660.31
2022-08-20T14:36:34.708Z,99661.44
2022-08-20T14:41:36.357Z,99658.88
2022-08-20T14:46:38.020Z,99664.56
2022-08-20T14:51:39.702Z,99657.31
2022-08-20T14:56:41.359Z,99664.38
2022-08-20T15:01:43.219Z,99666.28
2022-08-20T15:06:46.117Z,99663.13
2022-08-20T15:11:48.012Z,99658.31
2022-08-20T15:16:49.703Z,99662.69
2022-08-20T15:21:51.372Z,99664.38
2022-08-20T15:26:53.050Z,99660.47
2022-08-20T15:31:54.816Z,99667.59
2022-08-20T15:36:59.197Z,99670.28
2022-08-20T15:42:00.913Z,99663.88
2022-08-20T15:47:15.258Z,99664.53
2022-08-20T15:52:17.571Z,99671.84
2022-08-20T15:57:32.237Z,99673.34
2022-08-20T16:02:52.059Z,99675.50
2022-08-20T16:08:17.101Z,99679.22
2022-08-20T16:13:22.468Z,99675.72
2022-08-20T16:18:30.597Z,99677.69
2022-08-20T16:23:35.541Z,99690.00
2022-08-20T16:29:04.935Z,99684.28
2022-08-20T16:34:32.426Z,99696.47
2022-08-20T16:39:51.237Z,99691.09
2022-08-20T16:44:56.656Z,99691.88
2022-08-20T16:50:03.773Z,99702.22
2022-08-20T16:55:05.614Z,99702.31
2022-08-20T17:00:18.982Z,99708.84
2022-08-20T17:05:23.447Z,99717.03
2022-08-20T17:10:29.254Z,99713.94
2022-08-20T17:15:35.123Z,99717.03
2022-08-20T17:20:45.112Z,99720.06
2022-08-20T17:26:00.387Z,99726.09
2022-08-20T17:31:02.211Z,99731.41
2022-08-20T17:36:26.288Z,99731.72
2022-08-20T17:41:36.119Z,99727.50
2022-08-20T17:46:44.176Z,99731.72
2022-08-20T17:51:52.743Z,99737.78
2022-08-20T17:57:00.461Z,99744.66
2022-08-20T18:02:03.752Z,99739.16
2022-08-20T18:07:18.241Z,99753.25
2022-08-20T18:12:34.334Z,99750.19
2022-08-20T18:17:57.734Z,99747.50
2022-08-20T18:23:10.432Z,99752.69
2022-08-20T18:28:26.613Z,99754.88
2022-08-20T18:33:36.485Z,99745.34
2022-08-20T18:38:43.873Z,99761.16
2022-08-20T18:43:45.706Z,99758.59
2022-08-20T18:49:03.433Z,99759.88
2022-08-20T18:54:05.208Z,99761.78
2022-08-20T18:59:13.741Z,99774.94
2022-08-20T19:04:26.086Z,99778.03
2022-08-20T19:09:36.491Z,99773.94
2022-08-20T19:14:54.150Z,99776.94
2022-08-20T19:20:10.540Z,99785.72
2022-08-20T19:25:33.149Z,99771.31
2022-08-20T19:30:38.816Z,99778.78
2022-08-20T19:35:40.620Z,99782.94
2022-08-20T19:40:46.071Z,99778.47
2022-08-20T19:45:51.752Z,99777.56
2022-08-20T19:51:13.881Z,99770.50
2022-08-20T19:56:23.653Z,99771.63
2022-08-20T20:01:25.589Z,99766.81
2022-08-20T20:06:28.646Z,99776.34
2022-08-20T20:11:36.842Z,99767.28
2022-08-20T20:16:41.067Z,99761.00
2022-08-20T20:21:49.652Z,99762.97
2022-08-20T20:26:51.701Z,99767.31
2022-08-20T20:31:59.316Z,99757.28
2022-08-20T20:37:13.285Z,99754.25
2022-08-20T20:42:26.349Z,99747.75
2022-08-20T20:47:32.497Z,99742.16
2022-08-20T20:52:49.342Z,99735.88
2022-08-20T20:57:53.242Z,99746.78
2022-08-20T21:02:55.519Z,99739.59
2022-08-20T21:08:03.086Z,99737.69
2022-08-20T21:13:08.107Z,99729.97
2022-08-20T21:18:09.887Z,99719.63
2022-08-20T21:23:11.592Z,99719.97
2022-08-20T21:28:13.331Z,99715.00
2022-08-20T21:33:14.978Z,99710.19
2022-08-20T21:38:16.624Z,99709.56
2022-08-20T21:43:18.811Z,99716.97
2022-08-20T21:48:20.636Z,99717.94
2022-08-20T21:53:23.044Z,99710.47
2022-08-20T21:58:24.722Z,99704.88
2022-08-20T22:03:29.836Z,99699.72
2022-08-20T22:08:33.058Z,99697.75
2022-08-20T22:13:35.428Z,99704.88
2022-08-20T22:18:37.761Z,99695.25
2022-08-20T22:23:40.211Z,99699.44
2022-08-20T22:28:43.779Z,99706.63
2022-08-20T22:33:45.440Z,99709.50
2022-08-20T22:38:47.837Z,99706.47
2022-08-20T22:43:57.486Z,99706.22
2022-08-20T22:48:59.668Z,99701.59
2022-08-20T22:54:03.899Z,99702.59
2022-08-20T22:59:06.602Z,99702.69
2022-08-20T23:04:23.733Z,99700.09
2022-08-20T23:09:25.886Z,99699.47
2022-08-20T23:14:27.682Z,99708.25
2022-08-20T23:19:29.387Z,99699.91
2022-08-20T23:24:31.195Z,99697.75
2022-08-20T23:29:33.380Z,99703.97
2022-08-20T23:34:35.362Z,99695.72
2022-08-20T23:39:37.430Z,99687.91
2022-08-20T23:44:39.576Z,99699.09
2022-08-20T23:49:41.244Z,99696.09
2022-08-20T23:54:43.289Z,99697.97
2022-08-20T23:59:44.980Z,99691.75
